sensor_id;sensor_type;location;lat;lon;timestamp;P1;durP1;ratioP1;P2;durP2;ratioP2
3293;SDS011;1659;51.470;6.770;2023-12-22T00:00:42;7.30;;;1.97;;
3293;SDS011;1659;51.470;6.770;2023-12-22T00:03:08;3.87;;;1.60;;
3293;SDS011;1659;51.470;6.770;2023-12-22T00:05:35;3.80;;;1.83;;
3293;SDS011;1659;51.470;6.770;2023-12-22T00:08:01;11.00;;;2.20;;
3293;SDS011;1659;51.470;6.770;2023-12-22T00:10:28;5.40;;;1.63;;
3293;SDS011;1659;51.470;6.770;2023-12-22T00:12:55;4.83;;;1.67;;
3293;SDS011;1659;51.470;6.770;2023-12-22T00:15:22;3.60;;;1.93;;
3293;SDS011;1659;51.470;6.770;2023-12-22T00:17:49;3.13;;;1.93;;
3293;SDS011;1659;51.470;6.770;2023-12-22T00:20:15;4.13;;;1.73;;
3293;SDS011;1659;51.470;6.770;2023-12-22T00:22:42;1.80;;;1.70;;
3293;SDS011;1659;51.470;6.770;2023-12-22T00:25:09;6.20;;;2.10;;
3293;SDS011;1659;51.470;6.770;2023-12-22T00:27:36;7.53;;;2.57;;
3293;SDS011;1659;51.470;6.770;2023-12-22T00:30:02;4.00;;;1.87;;
3293;SDS011;1659;51.470;6.770;2023-12-22T00:32:31;4.87;;;2.00;;
3293;SDS011;1659;51.470;6.770;2023-12-22T00:34:57;11.57;;;2.00;;
3293;SDS011;1659;51.470;6.770;2023-12-22T00:37:24;4.60;;;2.07;;
3293;SDS011;1659;51.470;6.770;2023-12-22T00:39:50;7.43;;;2.10;;
3293;SDS011;1659;51.470;6.770;2023-12-22T00:42:17;9.13;;;1.73;;
3293;SDS011;1659;51.470;6.770;2023-12-22T00:44:44;5.40;;;2.20;;
3293;SDS011;1659;51.470;6.770;2023-12-22T00:47:10;12.07;;;2.50;;
3293;SDS011;1659;51.470;6.770;2023-12-22T00:49:38;3.43;;;1.97;;
3293;SDS011;1659;51.470;6.770;2023-12-22T00:52:05;15.10;;;2.23;;
3293;SDS011;1659;51.470;6.770;2023-12-22T00:54:31;9.87;;;2.57;;
3293;SDS011;1659;51.470;6.770;2023-12-22T00:56:58;3.50;;;1.90;;
3293;SDS011;1659;51.470;6.770;2023-12-22T00:59:24;4.33;;;2.30;;
3293;SDS011;1659;51.470;6.770;2023-12-22T01:01:51;16.43;;;2.37;;
3293;SDS011;1659;51.470;6.770;2023-12-22T01:04:17;11.93;;;2.93;;
3293;SDS011;1659;51.470;6.770;2023-12-22T01:06:45;5.60;;;2.70;;
3293;SDS011;1659;51.470;6.770;2023-12-22T01:09:12;10.10;;;3.93;;
3293;SDS011;1659;51.470;6.770;2023-12-22T01:11:39;7.13;;;2.20;;
3293;SDS011;1659;51.470;6.770;2023-12-22T01:14:06;7.73;;;1.97;;
3293;SDS011;1659;51.470;6.770;2023-12-22T01:16:33;8.10;;;1.80;;
3293;SDS011;1659;51.470;6.770;2023-12-22T01:19:00;5.30;;;1.80;;
3293;SDS011;1659;51.470;6.770;2023-12-22T01:21:26;3.23;;;2.30;;
3293;SDS011;1659;51.470;6.770;2023-12-22T01:23:54;10.43;;;2.80;;
3293;SDS011;1659;51.470;6.770;2023-12-22T01:26:21;6.27;;;3.23;;
3293;SDS011;1659;51.470;6.770;2023-12-22T01:28:47;11.33;;;4.97;;
3293;SDS011;1659;51.470;6.770;2023-12-22T01:31:14;17.20;;;5.00;;
3293;SDS011;1659;51.470;6.770;2023-12-22T01:33:40;20.43;;;5.73;;
3293;SDS011;1659;51.470;6.770;2023-12-22T01:36:07;10.43;;;4.20;;
3293;SDS011;1659;51.470;6.770;2023-12-22T01:38:34;15.30;;;4.37;;
3293;SDS011;1659;51.470;6.770;2023-12-22T01:41:02;4.20;;;1.87;;
3293;SDS011;1659;51.470;6.770;2023-12-22T01:43:28;2.40;;;1.90;;
3293;SDS011;1659;51.470;6.770;2023-12-22T01:45:55;5.63;;;1.97;;
3293;SDS011;1659;51.470;6.770;2023-12-22T01:48:23;2.40;;;1.63;;
3293;SDS011;1659;51.470;6.770;2023-12-22T01:50:50;5.27;;;1.73;;
3293;SDS011;1659;51.470;6.770;2023-12-22T01:53:17;14.30;;;1.93;;
3293;SDS011;1659;51.470;6.770;2023-12-22T01:55:45;11.53;;;2.20;;
3293;SDS011;1659;51.470;6.770;2023-12-22T01:58:15;6.63;;;1.93;;
3293;SDS011;1659;51.470;6.770;2023-12-22T02:00:42;2.07;;;1.87;;
3293;SDS011;1659;51.470;6.770;2023-12-22T02:03:08;5.03;;;1.73;;
3293;SDS011;1659;51.470;6.770;2023-12-22T02:05:35;13.03;;;3.87;;
3293;SDS011;1659;51.470;6.770;2023-12-22T02:08:02;6.53;;;2.90;;
3293;SDS011;1659;51.470;6.770;2023-12-22T02:10:30;7.10;;;2.40;;
3293;SDS011;1659;51.470;6.770;2023-12-22T02:12:56;3.10;;;2.27;;
3293;SDS011;1659;51.470;6.770;2023-12-22T02:15:24;9.17;;;2.10;;
3293;SDS011;1659;51.470;6.770;2023-12-22T02:17:52;5.70;;;1.37;;
3293;SDS011;1659;51.470;6.770;2023-12-22T02:20:23;7.43;;;3.10;;
3293;SDS011;1659;51.470;6.770;2023-12-22T02:22:52;7.73;;;3.07;;
3293;SDS011;1659;51.470;6.770;2023-12-22T02:25:19;11.10;;;3.90;;
3293;SDS011;1659;51.470;6.770;2023-12-22T02:27:47;21.70;;;4.20;;
3293;SDS011;1659;51.470;6.770;2023-12-22T02:30:17;18.60;;;4.33;;
3293;SDS011;1659;51.470;6.770;2023-12-22T02:32:50;14.30;;;4.10;;
3293;SDS011;1659;51.470;6.770;2023-12-22T02:35:21;7.47;;;2.23;;
3293;SDS011;1659;51.470;6.770;2023-12-22T02:37:53;9.00;;;2.50;;
3293;SDS011;1659;51.470;6.770;2023-12-22T02:40:22;11.23;;;3.30;;
3293;SDS011;1659;51.470;6.770;2023-12-22T02:42:51;17.13;;;3.70;;
3293;SDS011;1659;51.470;6.770;2023-12-22T02:45:19;9.30;;;4.20;;
3293;SDS011;1659;51.470;6.770;2023-12-22T02:47:46;12.53;;;3.70;;
3293;SDS011;1659;51.470;6.770;2023-12-22T02:50:13;27.33;;;4.70;;
3293;SDS011;1659;51.470;6.770;2023-12-22T02:52:40;5.90;;;2.50;;
3293;SDS011;1659;51.470;6.770;2023-12-22T02:55:08;6.70;;;3.13;;
3293;SDS011;1659;51.470;6.770;2023-12-22T02:57:35;4.73;;;1.93;;
3293;SDS011;1659;51.470;6.770;2023-12-22T03:00:02;7.13;;;2.47;;
3293;SDS011;1659;51.470;6.770;2023-12-22T03:02:29;8.90;;;3.57;;
3293;SDS011;1659;51.470;6.770;2023-12-22T03:04:56;7.40;;;4.63;;
3293;SDS011;1659;51.470;6.770;2023-12-22T03:07:22;8.83;;;2.70;;
3293;SDS011;1659;51.470;6.770;2023-12-22T03:09:49;2.80;;;2.57;;
3293;SDS011;1659;51.470;6.770;2023-12-22T03:12:17;5.20;;;2.33;;
3293;SDS011;1659;51.470;6.770;2023-12-22T03:14:43;5.67;;;2.83;;
3293;SDS011;1659;51.470;6.770;2023-12-22T03:17:10;24.90;;;4.17;;
3293;SDS011;1659;51.470;6.770;2023-12-22T03:19:36;12.60;;;4.77;;
3293;SDS011;1659;51.470;6.770;2023-12-22T03:22:03;9.97;;;3.00;;
3293;SDS011;1659;51.470;6.770;2023-12-22T03:24:30;9.20;;;3.80;;
3293;SDS011;1659;51.470;6.770;2023-12-22T03:26:56;17.27;;;5.13;;
3293;SDS011;1659;51.470;6.770;2023-12-22T03:29:24;11.10;;;3.27;;
3293;SDS011;1659;51.470;6.770;2023-12-22T03:31:51;8.33;;;3.53;;
3293;SDS011;1659;51.470;6.770;2023-12-22T03:34:17;7.10;;;3.50;;
3293;SDS011;1659;51.470;6.770;2023-12-22T03:36:44;6.87;;;3.17;;
3293;SDS011;1659;51.470;6.770;2023-12-22T03:39:13;5.00;;;2.33;;
3293;SDS011;1659;51.470;6.770;2023-12-22T03:41:39;9.20;;;2.87;;
3293;SDS011;1659;51.470;6.770;2023-12-22T03:44:06;6.03;;;2.03;;
3293;SDS011;1659;51.470;6.770;2023-12-22T03:46:34;19.13;;;2.40;;
3293;SDS011;1659;51.470;6.770;2023-12-22T03:49:00;9.13;;;2.40;;
3293;SDS011;1659;51.470;6.770;2023-12-22T03:51:27;4.23;;;2.13;;
3293;SDS011;1659;51.470;6.770;2023-12-22T03:53:54;8.03;;;2.07;;
3293;SDS011;1659;51.470;6.770;2023-12-22T03:56:20;7.53;;;2.60;;
3293;SDS011;1659;51.470;6.770;2023-12-22T03:58:47;8.33;;;2.50;;
3293;SDS011;1659;51.470;6.770;2023-12-22T04:01:14;13.20;;;2.10;;
3293;SDS011;1659;51.470;6.770;2023-12-22T04:03:42;16.90;;;2.90;;
3293;SDS011;1659;51.470;6.770;2023-12-22T04:06:08;11.33;;;2.03;;
3293;SDS011;1659;51.470;6.770;2023-12-22T04:08:35;13.87;;;3.40;;
3293;SDS011;1659;51.470;6.770;2023-12-22T04:11:01;17.33;;;2.83;;
3293;SDS011;1659;51.470;6.770;2023-12-22T04:13:28;20.17;;;3.03;;
3293;SDS011;1659;51.470;6.770;2023-12-22T04:15:55;10.43;;;3.27;;
3293;SDS011;1659;51.470;6.770;2023-12-22T04:18:21;9.90;;;2.63;;
3293;SDS011;1659;51.470;6.770;2023-12-22T04:20:49;15.77;;;3.47;;
3293;SDS011;1659;51.470;6.770;2023-12-22T04:23:18;13.63;;;2.80;;
3293;SDS011;1659;51.470;6.770;2023-12-22T04:25:45;7.53;;;2.80;;
3293;SDS011;1659;51.470;6.770;2023-12-22T04:28:11;14.40;;;3.47;;
3293;SDS011;1659;51.470;6.770;2023-12-22T04:30:38;9.97;;;2.87;;
3293;SDS011;1659;51.470;6.770;2023-12-22T04:33:04;13.53;;;3.17;;
3293;SDS011;1659;51.470;6.770;2023-12-22T04:35:31;15.00;;;3.53;;
3293;SDS011;1659;51.470;6.770;2023-12-22T04:37:59;12.07;;;2.97;;
3293;SDS011;1659;51.470;6.770;2023-12-22T04:40:25;17.53;;;3.80;;
3293;SDS011;1659;51.470;6.770;2023-12-22T04:42:53;13.47;;;3.80;;
3293;SDS011;1659;51.470;6.770;2023-12-22T04:45:20;7.37;;;3.10;;
3293;SDS011;1659;51.470;6.770;2023-12-22T04:47:46;7.13;;;2.83;;
3293;SDS011;1659;51.470;6.770;2023-12-22T04:50:13;17.47;;;4.00;;
3293;SDS011;1659;51.470;6.770;2023-12-22T04:52:39;6.53;;;2.30;;
3293;SDS011;1659;51.470;6.770;2023-12-22T04:55:07;11.70;;;3.13;;
3293;SDS011;1659;51.470;6.770;2023-12-22T04:57:34;13.77;;;2.93;;
3293;SDS011;1659;51.470;6.770;2023-12-22T05:00:00;4.60;;;2.63;;
3293;SDS011;1659;51.470;6.770;2023-12-22T05:02:27;5.60;;;3.27;;
3293;SDS011;1659;51.470;6.770;2023-12-22T05:04:54;8.10;;;2.90;;
3293;SDS011;1659;51.470;6.770;2023-12-22T05:07:20;6.50;;;2.67;;
3293;SDS011;1659;51.470;6.770;2023-12-22T05:09:47;8.47;;;2.70;;
3293;SDS011;1659;51.470;6.770;2023-12-22T05:12:15;4.20;;;1.50;;
3293;SDS011;1659;51.470;6.770;2023-12-22T05:14:41;7.57;;;2.07;;
3293;SDS011;1659;51.470;6.770;2023-12-22T05:17:08;10.47;;;1.83;;
3293;SDS011;1659;51.470;6.770;2023-12-22T05:19:35;13.60;;;3.40;;
3293;SDS011;1659;51.470;6.770;2023-12-22T05:22:03;17.80;;;4.50;;
3293;SDS011;1659;51.470;6.770;2023-12-22T05:24:30;26.83;;;5.87;;
3293;SDS011;1659;51.470;6.770;2023-12-22T05:26:56;19.63;;;5.47;;
3293;SDS011;1659;51.470;6.770;2023-12-22T05:29:24;7.93;;;4.07;;
3293;SDS011;1659;51.470;6.770;2023-12-22T05:31:50;8.53;;;3.33;;
3293;SDS011;1659;51.470;6.770;2023-12-22T05:34:17;7.17;;;3.30;;
3293;SDS011;1659;51.470;6.770;2023-12-22T05:36:43;9.47;;;3.17;;
3293;SDS011;1659;51.470;6.770;2023-12-22T05:39:10;6.03;;;2.97;;
3293;SDS011;1659;51.470;6.770;2023-12-22T05:41:37;5.57;;;1.77;;
3293;SDS011;1659;51.470;6.770;2023-12-22T05:44:03;11.37;;;1.60;;
3293;SDS011;1659;51.470;6.770;2023-12-22T05:46:34;9.43;;;3.60;;
3293;SDS011;1659;51.470;6.770;2023-12-22T05:49:02;3.77;;;1.60;;
3293;SDS011;1659;51.470;6.770;2023-12-22T05:51:28;4.27;;;1.80;;
3293;SDS011;1659;51.470;6.770;2023-12-22T05:53:55;6.40;;;2.97;;
3293;SDS011;1659;51.470;6.770;2023-12-22T05:56:22;7.57;;;2.90;;
3293;SDS011;1659;51.470;6.770;2023-12-22T05:58:49;7.53;;;2.90;;
3293;SDS011;1659;51.470;6.770;2023-12-22T06:01:16;14.23;;;3.73;;
3293;SDS011;1659;51.470;6.770;2023-12-22T06:03:44;14.43;;;4.67;;
3293;SDS011;1659;51.470;6.770;2023-12-22T06:06:11;7.53;;;2.30;;
3293;SDS011;1659;51.470;6.770;2023-12-22T06:08:38;5.80;;;1.93;;
3293;SDS011;1659;51.470;6.770;2023-12-22T06:11:05;8.70;;;2.07;;
3293;SDS011;1659;51.470;6.770;2023-12-22T06:13:31;16.10;;;2.63;;
3293;SDS011;1659;51.470;6.770;2023-12-22T06:15:58;13.00;;;2.83;;
3293;SDS011;1659;51.470;6.770;2023-12-22T06:18:24;9.77;;;3.20;;
3293;SDS011;1659;51.470;6.770;2023-12-22T06:20:52;11.70;;;4.57;;
3293;SDS011;1659;51.470;6.770;2023-12-22T06:23:19;11.53;;;3.17;;
3293;SDS011;1659;51.470;6.770;2023-12-22T06:25:46;7.07;;;3.60;;
3293;SDS011;1659;51.470;6.770;2023-12-22T06:28:13;11.03;;;2.30;;
3293;SDS011;1659;51.470;6.770;2023-12-22T06:30:41;14.27;;;2.87;;
3293;SDS011;1659;51.470;6.770;2023-12-22T06:33:08;10.53;;;2.80;;
3293;SDS011;1659;51.470;6.770;2023-12-22T06:35:36;9.17;;;2.37;;
3293;SDS011;1659;51.470;6.770;2023-12-22T06:38:04;7.70;;;2.67;;
3293;SDS011;1659;51.470;6.770;2023-12-22T06:40:31;34.00;;;3.50;;
3293;SDS011;1659;51.470;6.770;2023-12-22T06:42:57;10.13;;;2.47;;
3293;SDS011;1659;51.470;6.770;2023-12-22T06:45:24;11.37;;;3.30;;
3293;SDS011;1659;51.470;6.770;2023-12-22T06:47:51;17.83;;;3.70;;
3293;SDS011;1659;51.470;6.770;2023-12-22T06:50:17;5.20;;;2.80;;
3293;SDS011;1659;51.470;6.770;2023-12-22T06:52:44;7.30;;;2.83;;
3293;SDS011;1659;51.470;6.770;2023-12-22T06:55:12;11.83;;;2.80;;
3293;SDS011;1659;51.470;6.770;2023-12-22T06:57:38;15.63;;;3.57;;
3293;SDS011;1659;51.470;6.770;2023-12-22T07:00:05;23.93;;;3.70;;
3293;SDS011;1659;51.470;6.770;2023-12-22T07:02:33;15.67;;;3.43;;
3293;SDS011;1659;51.470;6.770;2023-12-22T07:05:02;13.03;;;3.37;;
3293;SDS011;1659;51.470;6.770;2023-12-22T07:07:50;16.47;;;5.80;;
3293;SDS011;1659;51.470;6.770;2023-12-22T07:10:18;6.30;;;3.07;;
3293;SDS011;1659;51.470;6.770;2023-12-22T07:12:44;6.77;;;3.27;;
3293;SDS011;1659;51.470;6.770;2023-12-22T07:15:11;20.43;;;3.93;;
3293;SDS011;1659;51.470;6.770;2023-12-22T07:17:37;23.27;;;3.70;;
3293;SDS011;1659;51.470;6.770;2023-12-22T07:20:04;10.20;;;2.90;;
3293;SDS011;1659;51.470;6.770;2023-12-22T07:22:32;9.00;;;2.60;;
3293;SDS011;1659;51.470;6.770;2023-12-22T07:24:58;12.63;;;3.03;;
3293;SDS011;1659;51.470;6.770;2023-12-22T07:27:26;10.43;;;3.10;;
3293;SDS011;1659;51.470;6.770;2023-12-22T07:29:52;20.43;;;3.30;;
3293;SDS011;1659;51.470;6.770;2023-12-22T07:32:19;11.70;;;3.70;;
3293;SDS011;1659;51.470;6.770;2023-12-22T07:34:46;7.50;;;3.73;;
3293;SDS011;1659;51.470;6.770;2023-12-22T07:37:12;10.73;;;3.43;;
3293;SDS011;1659;51.470;6.770;2023-12-22T07:39:39;9.93;;;3.50;;
3293;SDS011;1659;51.470;6.770;2023-12-22T07:42:06;7.13;;;3.20;;
3293;SDS011;1659;51.470;6.770;2023-12-22T07:44:34;7.60;;;3.00;;
3293;SDS011;1659;51.470;6.770;2023-12-22T07:47:01;10.97;;;3.53;;
3293;SDS011;1659;51.470;6.770;2023-12-22T07:49:28;16.40;;;3.97;;
3293;SDS011;1659;51.470;6.770;2023-12-22T07:51:54;15.63;;;3.43;;
3293;SDS011;1659;51.470;6.770;2023-12-22T07:54:21;11.23;;;4.00;;
3293;SDS011;1659;51.470;6.770;2023-12-22T07:56:47;13.37;;;3.20;;
3293;SDS011;1659;51.470;6.770;2023-12-22T07:59:14;11.47;;;4.03;;
3293;SDS011;1659;51.470;6.770;2023-12-22T08:01:42;12.67;;;4.07;;
3293;SDS011;1659;51.470;6.770;2023-12-22T08:04:09;20.43;;;5.43;;
3293;SDS011;1659;51.470;6.770;2023-12-22T08:06:35;22.10;;;5.23;;
3293;SDS011;1659;51.470;6.770;2023-12-22T08:09:02;18.93;;;4.30;;
3293;SDS011;1659;51.470;6.770;2023-12-22T08:11:29;13.83;;;4.07;;
3293;SDS011;1659;51.470;6.770;2023-12-22T08:13:55;21.07;;;6.07;;
3293;SDS011;1659;51.470;6.770;2023-12-22T08:16:22;13.03;;;4.97;;
3293;SDS011;1659;51.470;6.770;2023-12-22T08:18:50;18.60;;;5.47;;
3293;SDS011;1659;51.470;6.770;2023-12-22T08:21:18;15.37;;;4.00;;
3293;SDS011;1659;51.470;6.770;2023-12-22T08:23:44;21.07;;;4.87;;
3293;SDS011;1659;51.470;6.770;2023-12-22T08:26:11;28.43;;;5.60;;
3293;SDS011;1659;51.470;6.770;2023-12-22T08:28:40;13.50;;;4.50;;
3293;SDS011;1659;51.470;6.770;2023-12-22T08:31:07;25.90;;;6.30;;
3293;SDS011;1659;51.470;6.770;2023-12-22T08:33:33;24.13;;;5.30;;
3293;SDS011;1659;51.470;6.770;2023-12-22T08:36:01;24.23;;;5.70;;
3293;SDS011;1659;51.470;6.770;2023-12-22T08:38:28;24.47;;;7.07;;
3293;SDS011;1659;51.470;6.770;2023-12-22T08:40:55;15.17;;;5.07;;
3293;SDS011;1659;51.470;6.770;2023-12-22T08:43:21;42.30;;;7.57;;
3293;SDS011;1659;51.470;6.770;2023-12-22T08:45:48;37.53;;;5.90;;
3293;SDS011;1659;51.470;6.770;2023-12-22T08:48:15;17.40;;;5.70;;
3293;SDS011;1659;51.470;6.770;2023-12-22T08:50:41;25.13;;;6.97;;
3293;SDS011;1659;51.470;6.770;2023-12-22T08:53:09;19.37;;;5.40;;
3293;SDS011;1659;51.470;6.770;2023-12-22T08:55:37;22.67;;;5.07;;
3293;SDS011;1659;51.470;6.770;2023-12-22T08:58:03;21.27;;;4.80;;
3293;SDS011;1659;51.470;6.770;2023-12-22T09:00:30;23.17;;;4.77;;
3293;SDS011;1659;51.470;6.770;2023-12-22T09:02:57;12.10;;;4.93;;
3293;SDS011;1659;51.470;6.770;2023-12-22T09:05:23;18.20;;;5.30;;
3293;SDS011;1659;51.470;6.770;2023-12-22T09:07:50;21.43;;;6.60;;
3293;SDS011;1659;51.470;6.770;2023-12-22T09:10:18;29.90;;;6.30;;
3293;SDS011;1659;51.470;6.770;2023-12-22T09:12:45;25.23;;;6.00;;
3293;SDS011;1659;51.470;6.770;2023-12-22T09:15:11;28.50;;;7.97;;
3293;SDS011;1659;51.470;6.770;2023-12-22T09:17:38;24.60;;;5.63;;
3293;SDS011;1659;51.470;6.770;2023-12-22T09:20:06;22.10;;;7.03;;
3293;SDS011;1659;51.470;6.770;2023-12-22T09:22:34;32.40;;;5.90;;
3293;SDS011;1659;51.470;6.770;2023-12-22T09:25:00;24.80;;;5.50;;
3293;SDS011;1659;51.470;6.770;2023-12-22T09:27:28;31.47;;;7.50;;
3293;SDS011;1659;51.470;6.770;2023-12-22T09:29:56;26.00;;;5.63;;
3293;SDS011;1659;51.470;6.770;2023-12-22T09:32:22;23.37;;;6.33;;
3293;SDS011;1659;51.470;6.770;2023-12-22T09:34:49;24.60;;;5.70;;
3293;SDS011;1659;51.470;6.770;2023-12-22T09:37:15;17.77;;;5.30;;
3293;SDS011;1659;51.470;6.770;2023-12-22T09:39:42;20.73;;;6.57;;
3293;SDS011;1659;51.470;6.770;2023-12-22T09:42:08;20.00;;;4.50;;
3293;SDS011;1659;51.470;6.770;2023-12-22T09:44:36;27.13;;;5.87;;
3293;SDS011;1659;51.470;6.770;2023-12-22T09:47:05;16.30;;;4.60;;
3293;SDS011;1659;51.470;6.770;2023-12-22T09:49:32;24.20;;;6.00;;
3293;SDS011;1659;51.470;6.770;2023-12-22T09:51:59;21.20;;;5.87;;
3293;SDS011;1659;51.470;6.770;2023-12-22T09:54:28;16.27;;;5.90;;
3293;SDS011;1659;51.470;6.770;2023-12-22T09:56:55;31.53;;;6.90;;
3293;SDS011;1659;51.470;6.770;2023-12-22T09:59:23;18.60;;;4.73;;
3293;SDS011;1659;51.470;6.770;2023-12-22T10:01:51;16.47;;;5.00;;
3293;SDS011;1659;51.470;6.770;2023-12-22T10:04:21;16.73;;;4.87;;
3293;SDS011;1659;51.470;6.770;2023-12-22T10:06:47;20.43;;;4.53;;
3293;SDS011;1659;51.470;6.770;2023-12-22T10:09:15;37.17;;;6.97;;
3293;SDS011;1659;51.470;6.770;2023-12-22T10:11:43;23.33;;;4.67;;
3293;SDS011;1659;51.470;6.770;2023-12-22T10:14:10;16.00;;;5.23;;
3293;SDS011;1659;51.470;6.770;2023-12-22T10:16:38;11.67;;;4.40;;
3293;SDS011;1659;51.470;6.770;2023-12-22T10:19:07;8.23;;;4.60;;
3293;SDS011;1659;51.470;6.770;2023-12-22T10:21:35;26.13;;;5.40;;
3293;SDS011;1659;51.470;6.770;2023-12-22T10:24:01;23.77;;;6.07;;
3293;SDS011;1659;51.470;6.770;2023-12-22T10:26:28;13.63;;;5.23;;
3293;SDS011;1659;51.470;6.770;2023-12-22T10:28:55;21.93;;;5.33;;
3293;SDS011;1659;51.470;6.770;2023-12-22T10:31:21;14.97;;;4.93;;
3293;SDS011;1659;51.470;6.770;2023-12-22T10:33:48;4.80;;;2.57;;
3293;SDS011;1659;51.470;6.770;2023-12-22T10:36:16;10.63;;;4.33;;
3293;SDS011;1659;51.470;6.770;2023-12-22T10:38:43;16.17;;;3.43;;
3293;SDS011;1659;51.470;6.770;2023-12-22T10:41:10;6.37;;;3.33;;
3293;SDS011;1659;51.470;6.770;2023-12-22T10:43:37;5.03;;;2.20;;
3293;SDS011;1659;51.470;6.770;2023-12-22T10:46:04;4.90;;;2.00;;
3293;SDS011;1659;51.470;6.770;2023-12-22T10:48:33;7.33;;;2.20;;
3293;SDS011;1659;51.470;6.770;2023-12-22T10:50:59;12.70;;;3.17;;
3293;SDS011;1659;51.470;6.770;2023-12-22T10:53:27;6.73;;;3.20;;
3293;SDS011;1659;51.470;6.770;2023-12-22T10:55:54;7.20;;;3.10;;
3293;SDS011;1659;51.470;6.770;2023-12-22T10:58:21;5.93;;;3.63;;
3293;SDS011;1659;51.470;6.770;2023-12-22T11:00:47;4.77;;;3.20;;
3293;SDS011;1659;51.470;6.770;2023-12-22T11:03:18;2.53;;;2.20;;
3293;SDS011;1659;51.470;6.770;2023-12-22T11:05:50;5.73;;;2.20;;
3293;SDS011;1659;51.470;6.770;2023-12-22T11:08:18;4.60;;;2.40;;
3293;SDS011;1659;51.470;6.770;2023-12-22T11:10:49;5.17;;;2.60;;
3293;SDS011;1659;51.470;6.770;2023-12-22T11:13:21;3.97;;;3.10;;
3293;SDS011;1659;51.470;6.770;2023-12-22T11:15:49;13.60;;;3.70;;
3293;SDS011;1659;51.470;6.770;2023-12-22T11:18:18;10.17;;;3.10;;
3293;SDS011;1659;51.470;6.770;2023-12-22T11:20:46;7.47;;;2.73;;
3293;SDS011;1659;51.470;6.770;2023-12-22T11:23:16;8.80;;;3.57;;
3293;SDS011;1659;51.470;6.770;2023-12-22T11:25:45;5.50;;;3.10;;
3293;SDS011;1659;51.470;6.770;2023-12-22T11:28:19;10.40;;;3.43;;
3293;SDS011;1659;51.470;6.770;2023-12-22T11:30:47;8.47;;;3.53;;
3293;SDS011;1659;51.470;6.770;2023-12-22T11:33:15;9.53;;;2.90;;
3293;SDS011;1659;51.470;6.770;2023-12-22T11:35:42;3.93;;;3.07;;
3293;SDS011;1659;51.470;6.770;2023-12-22T11:38:10;3.30;;;2.80;;
3293;SDS011;1659;51.470;6.770;2023-12-22T11:40:37;5.60;;;2.87;;
3293;SDS011;1659;51.470;6.770;2023-12-22T11:43:05;5.40;;;2.90;;
3293;SDS011;1659;51.470;6.770;2023-12-22T11:45:33;7.50;;;2.70;;
3293;SDS011;1659;51.470;6.770;2023-12-22T11:48:05;7.53;;;3.87;;
3293;SDS011;1659;51.470;6.770;2023-12-22T11:50:32;5.20;;;2.80;;
3293;SDS011;1659;51.470;6.770;2023-12-22T11:55:55;10.10;;;3.73;;
3293;SDS011;1659;51.470;6.770;2023-12-22T12:01:16;3.00;;;2.70;;
3293;SDS011;1659;51.470;6.770;2023-12-22T12:03:48;4.50;;;3.00;;
3293;SDS011;1659;51.470;6.770;2023-12-22T12:06:16;5.33;;;3.30;;
3293;SDS011;1659;51.470;6.770;2023-12-22T12:08:56;6.50;;;2.90;;
3293;SDS011;1659;51.470;6.770;2023-12-22T12:11:23;3.93;;;2.40;;
3293;SDS011;1659;51.470;6.770;2023-12-22T12:14:13;10.23;;;2.90;;
3293;SDS011;1659;51.470;6.770;2023-12-22T12:16:40;4.03;;;2.97;;
3293;SDS011;1659;51.470;6.770;2023-12-22T12:19:08;4.67;;;3.00;;
3293;SDS011;1659;51.470;6.770;2023-12-22T12:21:35;12.70;;;3.17;;
3293;SDS011;1659;51.470;6.770;2023-12-22T12:24:02;7.70;;;3.60;;
3293;SDS011;1659;51.470;6.770;2023-12-22T12:26:30;5.20;;;3.33;;
3293;SDS011;1659;51.470;6.770;2023-12-22T12:28:59;2.97;;;2.77;;
3293;SDS011;1659;51.470;6.770;2023-12-22T12:31:36;6.50;;;2.40;;
3293;SDS011;1659;51.470;6.770;2023-12-22T12:34:03;4.47;;;2.90;;
3293;SDS011;1659;51.470;6.770;2023-12-22T12:36:31;7.43;;;2.83;;
3293;SDS011;1659;51.470;6.770;2023-12-22T12:38:59;10.00;;;3.27;;
3293;SDS011;1659;51.470;6.770;2023-12-22T12:41:42;9.77;;;3.37;;
3293;SDS011;1659;51.470;6.770;2023-12-22T12:44:10;3.97;;;2.90;;
3293;SDS011;1659;51.470;6.770;2023-12-22T12:46:39;14.20;;;2.70;;
3293;SDS011;1659;51.470;6.770;2023-12-22T12:49:07;7.10;;;3.23;;
3293;SDS011;1659;51.470;6.770;2023-12-22T12:51:36;9.23;;;3.10;;
3293;SDS011;1659;51.470;6.770;2023-12-22T12:54:04;4.53;;;2.53;;
3293;SDS011;1659;51.470;6.770;2023-12-22T12:56:35;6.53;;;2.73;;
3293;SDS011;1659;51.470;6.770;2023-12-22T12:59:06;5.30;;;2.80;;
3293;SDS011;1659;51.470;6.770;2023-12-22T13:01:43;11.60;;;2.57;;
3293;SDS011;1659;51.470;6.770;2023-12-22T13:04:12;6.47;;;2.40;;
3293;SDS011;1659;51.470;6.770;2023-12-22T13:06:42;6.37;;;2.40;;
3293;SDS011;1659;51.470;6.770;2023-12-22T13:09:09;4.97;;;2.17;;
3293;SDS011;1659;51.470;6.770;2023-12-22T13:11:38;5.13;;;4.00;;
3293;SDS011;1659;51.470;6.770;2023-12-22T13:14:05;13.77;;;3.83;;
3293;SDS011;1659;51.470;6.770;2023-12-22T13:16:33;9.40;;;4.40;;
3293;SDS011;1659;51.470;6.770;2023-12-22T13:19:01;11.00;;;6.37;;
3293;SDS011;1659;51.470;6.770;2023-12-22T13:21:28;11.53;;;4.87;;
3293;SDS011;1659;51.470;6.770;2023-12-22T13:24:07;6.53;;;3.70;;
3293;SDS011;1659;51.470;6.770;2023-12-22T13:26:34;4.30;;;3.27;;
3293;SDS011;1659;51.470;6.770;2023-12-22T13:29:01;11.00;;;3.30;;
3293;SDS011;1659;51.470;6.770;2023-12-22T13:31:27;6.37;;;2.87;;
3293;SDS011;1659;51.470;6.770;2023-12-22T13:33:56;5.93;;;3.50;;
3293;SDS011;1659;51.470;6.770;2023-12-22T13:36:25;6.03;;;3.20;;
3293;SDS011;1659;51.470;6.770;2023-12-22T13:38:51;5.60;;;3.10;;
3293;SDS011;1659;51.470;6.770;2023-12-22T13:41:18;7.77;;;3.20;;
3293;SDS011;1659;51.470;6.770;2023-12-22T13:43:45;4.40;;;2.90;;
3293;SDS011;1659;51.470;6.770;2023-12-22T13:46:12;8.60;;;3.20;;
3293;SDS011;1659;51.470;6.770;2023-12-22T13:48:40;2.30;;;2.20;;
3293;SDS011;1659;51.470;6.770;2023-12-22T13:51:07;7.13;;;3.17;;
3293;SDS011;1659;51.470;6.770;2023-12-22T13:53:35;3.23;;;2.93;;
3293;SDS011;1659;51.470;6.770;2023-12-22T13:56:02;9.73;;;3.20;;
3293;SDS011;1659;51.470;6.770;2023-12-22T13:58:28;3.90;;;2.90;;
3293;SDS011;1659;51.470;6.770;2023-12-22T14:00:55;6.90;;;3.13;;
3293;SDS011;1659;51.470;6.770;2023-12-22T14:03:22;6.63;;;3.70;;
3293;SDS011;1659;51.470;6.770;2023-12-22T14:05:48;4.37;;;2.87;;
3293;SDS011;1659;51.470;6.770;2023-12-22T14:08:15;3.50;;;3.20;;
3293;SDS011;1659;51.470;6.770;2023-12-22T14:10:46;8.13;;;3.07;;
3293;SDS011;1659;51.470;6.770;2023-12-22T14:13:13;6.77;;;3.30;;
3293;SDS011;1659;51.470;6.770;2023-12-22T14:15:41;3.03;;;2.83;;
3293;SDS011;1659;51.470;6.770;2023-12-22T14:18:07;4.80;;;2.23;;
3293;SDS011;1659;51.470;6.770;2023-12-22T14:20:34;6.10;;;2.57;;
3293;SDS011;1659;51.470;6.770;2023-12-22T14:23:01;3.67;;;2.60;;
3293;SDS011;1659;51.470;6.770;2023-12-22T14:25:27;3.57;;;3.23;;
3293;SDS011;1659;51.470;6.770;2023-12-22T14:27:55;3.20;;;2.30;;
3293;SDS011;1659;51.470;6.770;2023-12-22T14:30:22;8.43;;;2.63;;
3293;SDS011;1659;51.470;6.770;2023-12-22T14:32:49;7.60;;;5.30;;
3293;SDS011;1659;51.470;6.770;2023-12-22T14:35:15;6.67;;;2.17;;
3293;SDS011;1659;51.470;6.770;2023-12-22T14:37:42;7.50;;;2.80;;
3293;SDS011;1659;51.470;6.770;2023-12-22T14:40:10;3.87;;;2.40;;
3293;SDS011;1659;51.470;6.770;2023-12-22T14:42:37;2.23;;;2.00;;
3293;SDS011;1659;51.470;6.770;2023-12-22T14:45:05;3.83;;;2.23;;
3293;SDS011;1659;51.470;6.770;2023-12-22T14:47:32;4.80;;;2.20;;
3293;SDS011;1659;51.470;6.770;2023-12-22T14:49:59;4.60;;;2.40;;
3293;SDS011;1659;51.470;6.770;2023-12-22T14:52:29;9.43;;;2.93;;
3293;SDS011;1659;51.470;6.770;2023-12-22T14:54:56;3.80;;;2.33;;
3293;SDS011;1659;51.470;6.770;2023-12-22T14:57:23;5.83;;;2.50;;
3293;SDS011;1659;51.470;6.770;2023-12-22T14:59:50;2.43;;;2.23;;
3293;SDS011;1659;51.470;6.770;2023-12-22T15:02:18;6.53;;;2.57;;
3293;SDS011;1659;51.470;6.770;2023-12-22T15:04:44;4.67;;;2.40;;
3293;SDS011;1659;51.470;6.770;2023-12-22T15:07:14;11.00;;;3.60;;
3293;SDS011;1659;51.470;6.770;2023-12-22T15:09:40;8.80;;;2.50;;
3293;SDS011;1659;51.470;6.770;2023-12-22T15:12:07;10.17;;;3.17;;
3293;SDS011;1659;51.470;6.770;2023-12-22T15:14:34;5.63;;;2.60;;
3293;SDS011;1659;51.470;6.770;2023-12-22T15:17:00;3.70;;;2.23;;